Ashcamp, Kentucky
Current Conditions -  °F | °C
As of 12:35 PM on Thursday 30 Oct 2014 (Local Time) from KLNP Reporting Station
Clear Clear  
Wind Chill: 46°   Ceiling: Unl
Heat Index: 48°   Visibility: 10mi
Dew Point: 34°   Wind: 5mph
Humidity: 57%   Direction: 330°NNW
Pressure: 30.1"   Gusts: NA
Location:  37.27°N, 82.43°W
Report Text: KLNP 301635Z AUTO 33004KT 10SM CLR 09/01 A3010 RMK AO2
Loading
Personal Weather Stations






























Interactive Weather Map
Tropical Storm Tracking
New forecast layout! Learn more

10-Day Weather Forecast

Advertisements
Track Severe Weather on mobile